Time;durP1;ratioP1;P1;durP2;ratioP2;P2;SDS_P1;SDS_P2;PMS_P1;PMS_P2;Temp;Humidity;BMP_temperature;BMP_pressure;BME280_temperature;BME280_humidity;BME280_pressure;Samples;Min_cycle;Max_cycle;Signal;HPM_P1;HPM_P2
2022/02/07 00:00:40;;;;;;;6.93;0.82;;;3.50;99.90;;;1.88;100.00;98694.88;4941144;28;20039;-86
2022/02/07 00:03:54;;;;;;;4.18;0.80;;;3.50;99.90;;;1.86;100.00;98702.75;4942623;28;20593;-84
2022/02/07 00:06:13;;;;;;;4.82;0.70;;;;;;;1.91;100.00;98699.97;4912555;28;20051;-83
2022/02/07 00:08:51;;;;;;;3.22;0.70;;;3.50;99.90;;;1.90;100.00;98708.63;4876840;28;20039;-85
2022/02/07 00:11:19;;;;;;;6.05;0.68;;;3.50;99.90;;;1.89;100.00;98709.56;4902292;23;20043;-86
2022/02/07 00:13:54;;;;;;;5.97;0.63;;;3.50;99.90;;;1.90;100.00;98709.50;4951089;28;20033;-87
2022/02/07 00:16:20;;;;;;;4.22;0.57;;;3.50;99.90;;;1.91;100.00;98723.31;4953244;28;20516;-86
2022/02/07 00:18:47;;;;;;;3.58;0.63;;;;;;;1.94;100.00;98734.38;4982842;28;20037;-81
2022/02/07 00:21:13;;;;;;;1.85;0.55;;;3.50;99.90;;;1.92;100.00;98733.59;4927550;28;20158;-83
2022/02/07 00:23:48;;;;;;;6.60;0.63;;;3.50;99.90;;;1.90;100.00;98735.47;4888500;28;20030;-83
2022/02/07 00:26:14;;;;;;;5.60;0.63;;;3.50;99.90;;;1.93;100.00;98735.31;4951481;28;20067;-82
2022/02/07 00:28:40;;;;;;;5.22;0.73;;;3.50;99.90;;;1.89;100.00;98743.31;4934391;28;20384;-85
2022/02/07 00:33:37;;;;;;;7.57;0.68;;;3.50;99.90;;;1.82;100.00;98751.34;4968768;22;20740;-83
2022/02/07 00:36:04;;;;;;;4.45;0.73;;;3.50;99.90;;;1.81;100.00;98767.84;4898313;28;20544;-85
2022/02/07 00:38:30;;;;;;;5.22;0.50;;;3.50;99.90;;;1.82;100.00;98772.09;4923624;28;20026;-85
2022/02/07 00:41:01;;;;;;;1.05;0.57;;;3.50;99.90;;;1.83;100.00;98786.75;4919719;28;20121;-88
2022/02/07 00:46:35;;;;;;;6.43;0.68;;;;;;;1.80;100.00;98788.66;4869627;28;20042;-87
2022/02/07 00:49:07;;;;;;;;;;;3.80;99.90;;;1.71;100.00;98804.59;4918260;28;20040;-85
2022/02/07 00:51:33;;;;;;;4.72;0.40;;;3.40;99.90;;;1.72;100.00;98803.69;4908443;28;19914;-83
2022/02/07 00:54:00;;;;;;;4.45;0.45;;;3.40;99.90;;;1.72;100.00;98814.91;4906156;28;20046;-84
2022/02/07 00:56:35;;;;;;;1.45;0.38;;;;;;;1.77;100.00;98806.94;4942363;28;20048;-84
2022/02/07 00:59:01;;;;;;;2.15;0.32;;;3.40;99.90;;;1.71;100.00;98815.00;4938089;28;20029;-83
2022/02/07 01:01:28;;;;;;;3.05;0.25;;;3.30;99.90;;;1.64;100.00;98822.16;4904519;28;20018;-84
2022/02/07 01:04:07;;;;;;;1.33;0.40;;;;;;;1.60;100.00;98826.63;4929368;28;20064;-84
2022/02/07 01:06:33;;;;;;;2.42;0.30;;;3.30;99.90;;;1.55;100.00;98828.56;4945792;28;20076;-83
2022/02/07 01:09:28;;;;;;;3.05;0.20;;;3.20;99.90;;;1.55;100.00;98843.28;4999823;28;20045;-82
2022/02/07 01:12:33;;;;;;;0.30;0.20;;;;;;;1.51;100.00;98849.50;4887850;28;20534;-84
2022/02/07 01:51:07;;;;;;;6.05;0.80;;;3.10;99.90;;;1.42;100.00;98937.13;4903884;28;20047;-84
2022/02/07 01:56:09;;;;;;;2.67;0.45;;;3.10;99.90;;;1.49;100.00;98942.94;4881090;28;20114;-80
2022/02/07 01:58:44;;;;;;;12.73;1.13;;;3.20;99.90;;;1.53;100.00;98957.47;4885236;28;20499;-82
2022/02/07 02:01:10;;;;;;;5.57;0.75;;;3.20;99.90;;;1.57;100.00;98966.00;4907949;28;20037;-83
2022/02/07 02:03:36;;;;;;;6.47;1.00;;;3.20;99.90;;;1.57;100.00;98976.38;4923872;28;20397;-84
2022/02/07 02:06:12;;;;;;;8.98;0.57;;;3.20;99.90;;;1.57;100.00;98971.19;4902369;28;20029;-84
2022/02/07 02:08:39;;;;;;;5.75;0.75;;;3.20;99.90;;;1.58;100.00;98978.06;4939129;28;20534;-82
2022/02/07 02:11:14;;;;;;;6.18;0.60;;;3.20;99.90;;;1.55;100.00;98979.00;4903414;28;20043;-83
2022/02/07 02:13:55;;;;;;;3.08;0.60;;;3.20;99.90;;;1.52;100.00;98975.72;4898230;28;20135;-82
2022/02/07 02:16:38;;;;;;;3.95;0.65;;;3.20;99.90;;;1.49;100.00;98994.84;4934880;28;20139;-82
2022/02/07 02:20:25;;;;;;;8.15;1.02;;;3.20;99.90;;;1.53;100.00;98995.53;4923944;28;20093;-83
2022/02/07 02:22:41;;;;;;;4.30;0.77;;;;;;;1.42;100.00;98983.81;4899139;28;20023;-83
2022/02/07 02:47:23;;;;;;;8.02;0.80;;;2.90;99.90;;;1.16;100.00;99078.09;4945932;28;20123;-83
2022/02/07 02:50:26;;;;;;;2.78;0.60;;;2.90;99.90;;;1.25;100.00;99074.34;4903409;28;20157;-83
2022/02/07 02:52:53;;;;;;;5.07;0.50;;;3.00;99.90;;;1.34;100.00;99083.53;4904959;28;20034;-81
2022/02/07 02:55:19;;;;;;;5.10;0.95;;;3.10;99.90;;;1.44;100.00;99103.91;4902989;28;20042;-82
2022/02/07 02:57:54;;;;;;;6.60;0.77;;;3.10;99.90;;;1.52;100.00;99113.19;4916211;28;20044;-84
2022/02/07 03:00:21;;;;;;;4.63;0.77;;;3.20;99.90;;;1.57;100.00;99125.09;4929281;28;20120;-81
2022/02/07 03:02:47;;;;;;;12.68;0.88;;;3.20;99.90;;;1.59;100.00;99133.66;4891381;28;20100;-82
2022/02/07 03:05:22;;;;;;;5.63;1.00;;;3.30;99.90;;;1.61;100.00;99121.47;4909490;28;20666;-83
2022/02/07 03:07:51;;;;;;;4.80;0.75;;;3.30;99.90;;;1.69;100.00;99148.91;4869147;28;20063;-82
2022/02/07 03:10:48;;;;;;;13.10;0.70;;;3.40;99.90;;;1.73;100.00;99153.94;4870467;28;20043;-82
2022/02/07 03:18:44;;;;;;;6.68;0.80;;;3.40;99.90;;;1.64;100.00;99168.09;4896998;28;20330;-83
2022/02/07 03:21:10;;;;;;;2.70;0.60;;;3.40;99.90;;;1.66;100.00;99187.94;4913536;28;20110;-84
2022/02/07 03:23:46;;;;;;;8.10;0.85;;;3.30;99.90;;;1.60;100.00;99192.44;4882128;28;20152;-84
2022/02/07 03:26:14;;;;;;;5.78;0.68;;;3.30;99.90;;;1.63;100.00;99194.09;4883699;28;20099;-82
2022/02/07 03:28:40;;;;;;;6.65;0.80;;;3.30;99.90;;;1.66;100.00;99213.88;4926267;28;20134;-82
2022/02/07 03:31:16;;;;;;;11.07;0.85;;;3.40;99.90;;;1.67;100.00;99216.44;4907793;28;20046;-83
2022/02/07 03:33:43;;;;;;;3.13;0.70;;;3.30;99.90;;;1.68;100.00;99225.91;4884874;28;20053;-83
2022/02/07 03:36:20;;;;;;;15.45;0.75;;;3.40;99.90;;;1.62;100.00;99232.16;4917386;28;20139;-82
2022/02/07 03:38:48;;;;;;;8.27;1.45;;;3.40;99.90;;;1.66;100.00;99238.06;4930019;28;20038;-82
2022/02/07 03:41:24;;;;;;;6.43;0.77;;;3.40;99.90;;;1.66;100.00;99243.25;4982778;28;20124;-81
2022/02/07 03:43:51;;;;;;;9.38;0.80;;;3.40;99.90;;;1.67;100.00;99257.09;4913628;28;20041;-84
2022/02/07 03:46:40;;;;;;;4.88;0.75;;;3.40;99.90;;;1.69;100.00;99270.88;4873099;28;20026;-83
2022/02/07 03:49:06;;;;;;;5.15;0.80;;;3.40;99.90;;;1.65;100.00;99270.13;4882057;28;20466;-82
2022/02/07 03:51:32;;;;;;;10.55;0.98;;;;;;;1.61;100.00;99278.91;4900914;28;20395;-83
2022/02/07 03:53:58;;;;;;;6.28;0.70;;;3.30;99.90;;;1.47;100.00;99276.78;4897534;28;20498;-82
2022/02/07 03:56:24;;;;;;;5.10;0.60;;;;;;;1.37;100.00;99272.78;4913670;28;20113;-82
2022/02/07 03:58:59;;;;;;;7.97;0.82;;;3.10;99.90;;;1.22;100.00;99277.53;4881028;28;20059;-83
2022/02/07 04:01:27;;;;;;;6.80;1.02;;;3.00;99.90;;;1.21;100.00;99288.81;4915562;28;20096;-83
2022/02/07 04:04:02;;;;;;;7.80;1.02;;;3.00;99.90;;;1.14;100.00;99292.47;4886748;28;20070;-82
2022/02/07 04:06:28;;;;;;;7.60;0.60;;;2.90;99.90;;;1.12;100.00;99289.09;4907615;28;20043;-82
2022/02/07 04:08:59;;;;;;;7.88;1.10;;;2.90;99.90;;;1.13;100.00;99318.47;4883720;28;20538;-83
2022/02/07 04:11:34;;;;;;;4.82;0.65;;;2.90;99.90;;;1.11;100.00;99310.75;4900963;28;20045;-82
2022/02/07 04:14:00;;;;;;;7.38;0.63;;;2.80;99.90;;;1.05;100.00;99326.47;4885086;28;20033;-81
2022/02/07 04:16:37;;;;;;;18.17;1.42;;;;;;;1.02;100.00;99342.97;4917540;28;20023;-82
2022/02/07 04:19:47;;;;;;;13.30;1.13;;;2.80;99.90;;;1.02;100.00;99342.97;4897898;28;20043;-83
2022/02/07 04:21:54;;;;;;;7.25;0.50;;;2.70;99.90;;;0.97;100.00;99355.22;4906392;28;20518;-84
2022/02/07 04:24:21;;;;;;;8.63;1.83;;;2.70;99.90;;;0.96;100.00;99369.06;4933947;28;20044;-82
2022/02/07 04:26:47;;;;;;;8.13;0.88;;;2.70;99.90;;;0.93;100.00;99358.81;4970532;28;20400;-82
2022/02/07 04:29:21;;;;;;;9.30;0.70;;;2.70;99.90;;;0.97;100.00;99375.09;4939090;28;20041;-82
2022/02/07 04:31:47;;;;;;;14.30;1.15;;;2.70;99.90;;;1.01;100.00;99382.72;4873309;28;20146;-82
2022/02/07 04:34:13;;;;;;;11.38;1.02;;;2.70;99.90;;;1.11;100.00;99392.84;4922350;28;20124;-82
2022/02/07 04:36:50;;;;;;;14.63;1.10;;;2.80;99.90;;;1.14;100.00;99395.34;4904173;28;20041;-83
2022/02/07 04:39:16;;;;;;;20.77;1.20;;;2.80;99.90;;;1.18;100.00;99408.19;4899736;28;20406;-83
2022/02/07 04:41:43;;;;;;;14.52;1.35;;;2.80;99.90;;;1.18;100.00;99410.75;4897752;28;20041;-82
2022/02/07 04:44:24;;;;;;;18.10;2.00;;;2.80;99.90;;;1.18;100.00;99415.94;4909203;28;20109;-82
2022/02/07 04:55:39;;;;;;;15.35;1.45;;;3.50;99.90;;;1.11;100.00;99435.19;4785735;29;20467;-82
2022/02/07 04:58:38;;;;;;;8.65;0.85;;;2.80;99.90;;;1.06;100.00;99443.97;4853274;28;20038;-84
2022/02/07 05:01:47;;;;;;;11.05;1.30;;;2.70;99.90;;;0.99;100.00;99451.94;4869819;28;20038;-81
2022/02/07 05:04:07;;;;;;;9.27;1.38;;;2.70;99.90;;;0.98;100.00;99449.38;4901452;28;20432;-83
2022/02/07 05:15:08;;;;;;;8.98;1.02;;;2.70;99.90;;;1.08;100.00;99486.25;4923647;28;20089;-82
2022/02/07 05:17:39;;;;;;;12.57;0.98;;;2.80;99.90;;;1.15;100.00;99496.44;4894930;28;20110;-81
2022/02/07 05:20:09;;;;;;;16.75;1.17;;;2.80;99.90;;;1.20;100.00;99506.66;4879633;28;20053;-81
2022/02/07 05:22:44;;;;;;;8.75;0.80;;;2.90;99.90;;;1.29;100.00;99516.78;4924532;28;20030;-82
2022/02/07 05:25:10;;;;;;;12.15;1.20;;;2.80;99.90;;;1.26;100.00;99511.69;4911791;28;20691;-82
2022/02/07 05:27:36;;;;;;;15.75;1.67;;;2.90;99.90;;;1.31;100.00;99509.81;4899838;28;20114;-82
2022/02/07 05:30:09;;;;;;;21.02;1.70;;;2.90;99.90;;;1.35;100.00;99519.22;4927183;28;20093;-81
2022/02/07 05:32:35;;;;;;;14.57;1.42;;;3.00;99.90;;;1.30;100.00;99518.50;4901051;28;20822;-82
2022/02/07 05:35:01;;;;;;;6.13;0.60;;;3.20;99.90;;;1.28;100.00;99528.06;4904252;28;20433;-82
2022/02/07 05:37:28;;;;;;;16.92;1.27;;;2.90;99.90;;;1.28;100.00;99533.25;4898037;28;20040;-82
2022/02/07 05:40:11;;;;;;;15.38;1.52;;;2.90;99.90;;;1.26;100.00;99531.59;4892233;28;20023;-81
2022/02/07 05:42:46;;;;;;;17.17;1.50;;;2.90;99.90;;;1.22;100.00;99554.16;4918396;28;20057;-83
2022/02/07 05:45:12;;;;;;;21.73;1.88;;;2.90;99.90;;;1.21;100.00;99555.91;4944737;28;20025;-82
2022/02/07 05:47:47;;;;;;;18.23;1.60;;;2.80;99.90;;;1.18;100.00;99566.34;4921506;28;20339;-82
2022/02/07 05:50:13;;;;;;;23.55;2.00;;;2.80;99.90;;;1.13;100.00;99564.78;4922410;28;20091;-82
2022/02/07 05:52:39;;;;;;;8.88;1.15;;;2.80;99.90;;;1.08;100.00;99562.31;4902430;28;20038;-81
2022/02/07 05:55:15;;;;;;;7.05;1.05;;;2.70;99.90;;;0.99;100.00;99565.13;4977979;28;20036;-81
2022/02/07 05:57:41;;;;;;;23.52;2.05;;;2.70;99.90;;;0.96;100.00;99584.19;4922187;28;20041;-82
2022/02/07 06:00:18;;;;;;;7.47;0.90;;;2.70;99.90;;;0.93;100.00;99597.25;4904039;28;20041;-82
2022/02/07 06:02:45;;;;;;;17.48;2.00;;;2.60;99.90;;;0.91;100.00;99604.22;4920951;28;20041;-80
2022/02/07 06:05:12;;;;;;;12.45;1.52;;;2.60;99.90;;;0.91;100.00;99619.78;4910165;28;20092;-81
2022/02/07 06:07:59;;;;;;;11.10;1.10;;;2.60;99.90;;;0.88;100.00;99618.97;4934111;28;20418;-83
2022/02/07 06:10:26;;;;;;;17.27;1.70;;;2.60;99.90;;;0.82;100.00;99622.56;4896851;28;20045;-82
2022/02/07 06:12:57;;;;;;;8.82;1.00;;;2.60;99.90;;;0.82;100.00;99633.81;4944678;28;20592;-83
2022/02/07 06:15:23;;;;;;;15.75;1.55;;;2.60;99.90;;;0.84;100.00;99644.13;4904352;28;20062;-81
2022/02/07 06:17:53;;;;;;;15.73;1.45;;;2.60;99.90;;;0.86;100.00;99650.13;4931334;28;20507;-81
2022/02/07 06:20:20;;;;;;;23.65;1.48;;;2.60;99.90;;;0.89;100.00;99649.22;4931124;28;20038;-83
2022/02/07 06:22:47;;;;;;;15.52;1.65;;;2.60;99.90;;;1.02;100.00;99661.81;4973699;28;20030;-82
2022/02/07 06:25:15;;;;;;;11.88;0.98;;;2.70;99.90;;;1.11;100.00;99670.28;5006529;23;20044;-79
2022/02/07 06:27:41;;;;;;;8.52;1.02;;;2.80;99.90;;;1.17;100.00;99676.16;4989251;28;20040;-79
2022/02/07 06:30:11;;;;;;;14.27;1.15;;;2.80;99.90;;;1.26;100.00;99688.03;4954439;28;20040;-79
2022/02/07 06:32:41;;;;;;;15.88;1.20;;;2.90;99.90;;;1.34;100.00;99690.41;4951514;28;20029;-79
2022/02/07 06:35:08;;;;;;;20.58;2.20;;;3.00;99.90;;;1.46;100.00;99682.34;4932275;28;20037;-80
2022/02/07 06:37:39;;;;;;;11.45;1.10;;;3.10;99.90;;;1.54;100.00;99695.97;4965459;28;20486;-80
2022/02/07 06:40:07;;;;;;;16.00;1.58;;;3.10;99.90;;;1.63;100.00;99703.50;5005072;28;20486;-79
2022/02/07 06:42:33;;;;;;;13.75;1.02;;;3.20;99.90;;;1.65;100.00;99708.66;4985584;28;20021;-79
2022/02/07 06:45:00;;;;;;;6.90;0.65;;;3.30;99.90;;;1.68;100.00;99710.31;4984542;28;20666;-80
2022/02/07 06:47:29;;;;;;;19.20;2.00;;;3.30;99.90;;;1.79;100.00;99719.53;4960189;28;21047;-79
2022/02/07 06:49:57;;;;;;;15.68;1.77;;;3.40;99.90;;;1.84;100.00;99724.59;4938448;28;20037;-81
2022/02/07 06:52:23;;;;;;;20.52;1.88;;;3.40;99.90;;;1.90;100.00;99726.16;4937117;28;20430;-79
2022/02/07 06:54:49;;;;;;;11.65;1.08;;;3.50;99.90;;;1.87;100.00;99721.91;4981072;28;20100;-79
2022/02/07 06:57:16;;;;;;;11.18;1.48;;;3.50;99.90;;;1.95;100.00;99745.09;4978206;28;20575;-79
2022/02/07 06:59:47;;;;;;;5.72;1.00;;;3.60;99.90;;;2.00;100.00;99743.19;4995000;28;20548;-79
2022/02/07 07:02:13;;;;;;;16.05;1.15;;;3.60;99.90;;;2.03;100.00;99750.91;4990254;28;20041;-80
2022/02/07 07:04:39;;;;;;;13.25;1.85;;;3.60;99.90;;;2.09;100.00;99758.53;4930344;28;20037;-78
2022/02/07 07:07:05;;;;;;;17.15;1.40;;;3.70;99.90;;;2.18;100.00;99760.00;4963043;28;20075;-79
2022/02/07 07:09:33;;;;;;;17.85;2.20;;;3.70;99.90;;;2.22;100.00;99765.06;4980532;28;20452;-79
2022/02/07 07:12:04;;;;;;;20.63;2.08;;;3.80;99.90;;;2.23;100.00;99768.56;4997112;28;20024;-80
2022/02/07 07:14:45;;;;;;;22.17;1.70;;;3.80;99.90;;;2.28;100.00;99768.41;4945442;28;20181;-79
2022/02/07 07:17:11;;;;;;;25.92;1.48;;;3.80;99.90;;;2.32;100.00;99777.84;5004069;28;20058;-79
2022/02/07 07:19:38;;;;;;;17.85;1.75;;;3.90;99.90;;;2.33;100.00;99784.72;4955163;28;20061;-79
2022/02/07 07:22:05;;;;;;;17.60;1.67;;;3.80;99.90;;;2.35;100.00;99793.31;4969896;28;20071;-79
2022/02/07 07:24:35;;;;;;;14.68;1.58;;;3.90;99.90;;;2.42;100.00;99794.88;4977543;28;20045;-81
2022/02/07 07:27:03;;;;;;;13.25;1.52;;;4.00;99.90;;;2.47;100.00;99804.22;4989912;28;20108;-79
2022/02/07 07:29:33;;;;;;;18.80;1.42;;;4.00;99.90;;;2.49;100.00;99813.75;4989120;28;20041;-78
2022/02/07 07:32:03;;;;;;;16.92;1.77;;;4.00;99.90;;;2.45;100.00;99808.63;4972774;28;20052;-80
2022/02/07 07:34:31;;;;;;;13.68;1.65;;;4.00;99.90;;;2.52;100.00;99829.22;4973163;28;20021;-79
2022/02/07 07:36:58;;;;;;;10.45;1.20;;;4.00;99.90;;;2.55;100.00;99829.13;4969372;28;20036;-79
2022/02/07 07:39:25;;;;;;;15.40;1.50;;;4.10;99.90;;;2.55;100.00;99837.81;4968144;28;20112;-79
2022/02/07 07:41:56;;;;;;;15.48;1.52;;;4.10;99.90;;;2.54;100.00;99838.69;4980605;28;20482;-80
2022/02/07 07:44:27;;;;;;;15.05;2.33;;;4.10;99.90;;;2.54;100.00;99840.44;4953069;28;20026;-79
2022/02/07 07:46:57;;;;;;;19.75;1.58;;;4.20;99.90;;;2.54;100.00;99845.63;4953535;28;20120;-81
2022/02/07 07:49:33;;;;;;;23.65;1.80;;;4.20;99.90;;;2.52;100.00;99856.06;4986080;28;20009;-80
2022/02/07 07:52:13;;;;;;;18.70;1.70;;;4.20;99.90;;;2.52;100.00;99861.25;5007106;28;20057;-81
2022/02/07 07:54:52;;;;;;;8.90;1.70;;;4.10;99.90;;;2.51;100.00;99869.97;4928511;28;20053;-83
2022/02/07 08:02:52;;;;;;;7.13;1.17;;;4.20;99.90;;;2.63;100.00;99890.41;4994551;28;20075;-81
2022/02/07 08:05:26;;;;;;;7.75;1.00;;;4.30;99.90;;;2.69;100.00;99899.78;5009304;28;20021;-80
2022/02/07 08:07:56;;;;;;;13.65;1.30;;;4.30;99.90;;;2.73;100.00;99895.38;4981617;28;20369;-80
2022/02/07 08:10:40;;;;;;;7.53;1.42;;;4.30;99.90;;;2.72;100.00;99906.66;4993093;28;20034;-80
2022/02/07 08:13:07;;;;;;;15.80;2.03;;;4.30;99.90;;;2.79;100.00;99903.00;4969304;28;20065;-81
2022/02/07 08:15:33;;;;;;;11.98;1.80;;;4.40;99.90;;;2.86;100.00;99920.97;4930509;28;20038;-80
2022/02/07 08:17:59;;;;;;;13.27;1.58;;;4.50;99.90;;;2.91;100.00;99920.84;4938477;28;20512;-80
2022/02/07 08:20:25;;;;;;;15.10;1.92;;;4.50;99.90;;;2.99;100.00;99929.28;4937126;28;20049;-80
2022/02/07 08:22:51;;;;;;;17.85;2.38;;;4.50;99.90;;;3.02;100.00;99929.22;4965231;28;20054;-81
2022/02/07 08:25:17;;;;;;;11.75;1.45;;;4.60;99.90;;;3.16;100.00;99935.78;4958008;28;20043;-79
2022/02/07 08:27:45;;;;;;;12.25;1.50;;;4.60;99.90;;;3.18;100.00;99947.00;4973422;28;20591;-81
2022/02/07 08:30:12;;;;;;;12.90;1.55;;;4.60;99.90;;;3.27;100.00;99949.31;4994159;28;20500;-82
2022/02/07 08:32:38;;;;;;;15.88;2.47;;;4.70;99.90;;;3.27;100.00;99970.13;4957794;28;20045;-81
2022/02/07 08:35:05;;;;;;;9.82;1.63;;;4.70;99.90;;;3.24;100.00;99975.41;4957017;28;20022;-79
2022/02/07 08:37:31;;;;;;;9.75;1.90;;;4.60;99.90;;;3.08;100.00;99970.63;4973235;28;20117;-81
2022/02/07 08:40:02;;;;;;;21.58;3.15;;;4.60;99.90;;;3.06;100.00;99966.38;4972523;28;20038;-82
2022/02/07 08:42:29;;;;;;;16.45;2.17;;;4.60;99.90;;;3.12;100.00;99975.78;4925076;28;20180;-80
2022/02/07 08:44:55;;;;;;;19.25;2.45;;;4.60;99.90;;;3.22;100.00;99996.28;4995284;28;20026;-80
2022/02/07 08:47:23;;;;;;;30.98;2.60;;;4.60;99.90;;;3.27;100.00;100001.34;4981998;28;20041;-80
2022/02/07 08:49:49;;;;;;;11.10;1.75;;;4.70;99.90;;;3.36;100.00;100011.50;4988439;28;20091;-80
2022/02/07 08:52:17;;;;;;;15.75;2.30;;;4.70;99.90;;;3.42;100.00;100003.53;4924110;28;20498;-80
2022/02/07 08:54:43;;;;;;;19.42;2.35;;;4.60;99.90;;;3.46;100.00;100005.13;4928933;28;20033;-81
2022/02/07 08:57:14;;;;;;;13.63;1.95;;;4.80;99.90;;;3.46;100.00;100012.94;4948778;28;20033;-80
2022/02/07 09:07:44;;;;;;;25.67;3.03;;;4.90;99.90;;;3.45;100.00;100062.44;4943336;28;20574;-84
2022/02/07 09:10:13;;;;;;;10.90;2.03;;;4.90;99.90;;;3.58;100.00;100053.38;4910303;28;20104;-83
2022/02/07 09:12:43;;;;;;;21.73;2.45;;;5.00;99.90;;;3.72;100.00;100046.94;4938275;28;20030;-80
2022/02/07 09:18:04;;;;;;;12.45;2.20;;;5.00;99.90;;;3.61;100.00;100068.94;4978671;28;20109;-80
2022/02/07 09:20:41;;;;;;;18.90;3.28;;;5.00;99.90;;;3.65;100.00;100069.66;4970792;28;20032;-83
2022/02/07 09:23:08;;;;;;;16.45;2.85;;;5.10;99.90;;;3.63;99.47;100080.16;4955750;28;20029;-86
2022/02/07 09:25:43;;;;;;;15.77;2.53;;;5.10;99.90;;;3.71;99.89;100085.13;4912583;28;21339;-86
2022/02/07 09:28:09;;;;;;;28.40;4.50;;;5.20;99.90;;;3.74;99.75;100092.88;4916409;28;20782;-84
2022/02/07 09:30:35;;;;;;;24.67;2.83;;;5.20;99.90;;;3.83;99.39;100103.00;4925022;28;20049;-82
2022/02/07 09:33:01;;;;;;;14.48;2.92;;;5.30;99.90;;;3.94;99.15;100112.28;4930255;28;20481;-85
2022/02/07 09:35:35;;;;;;;11.93;2.63;;;5.40;99.90;;;4.21;99.82;100113.19;4957229;28;20039;-79
2022/02/07 09:38:03;;;;;;;19.17;2.58;;;5.50;99.90;;;4.43;98.08;100121.22;4965062;28;20034;-81
2022/02/07 09:40:32;;;;;;;21.20;2.55;;;5.60;99.90;;;4.43;96.77;100142.09;4929397;28;20082;-82
2022/02/07 09:43:01;;;;;;;20.48;3.05;;;5.70;99.90;;;4.36;95.89;100143.16;4948154;28;20083;-82
2022/02/07 09:45:39;;;;;;;20.45;2.47;;;5.80;99.90;;;4.58;96.23;100161.59;4984256;28;20519;-82
2022/02/07 09:48:10;;;;;;;16.77;3.05;;;5.80;99.90;;;4.47;94.74;100148.88;4965476;28;20038;-83
2022/02/07 09:50:43;;;;;;;17.15;2.67;;;5.80;99.90;;;4.34;94.41;100169.25;4934635;28;20177;-82
2022/02/07 09:53:10;;;;;;;19.00;2.75;;;5.80;99.90;;;4.34;94.23;100174.47;4917723;28;20037;-83
2022/02/07 09:55:37;;;;;;;30.63;4.28;;;5.80;99.90;;;4.48;94.81;100176.69;4923872;28;20033;-81
2022/02/07 09:58:06;;;;;;;13.90;2.40;;;5.90;99.90;;;4.54;94.27;100192.16;4948866;28;20080;-83
2022/02/07 10:00:38;;;;;;;21.35;3.13;;;6.00;99.90;;;4.54;93.24;100207.78;4890930;28;20109;-83
2022/02/07 10:03:30;;;;;;;15.55;3.05;;;5.90;99.90;;;4.54;93.14;100215.59;4946075;28;20121;-81
2022/02/07 10:06:35;;;;;;;15.13;2.63;;;5.90;99.90;;;4.46;92.13;100214.97;4955853;28;20021;-82
2022/02/07 10:09:36;;;;;;;22.15;3.10;;;5.90;99.90;;;4.41;92.97;100217.72;4964211;28;20041;-80
2022/02/07 10:12:25;;;;;;;18.35;2.90;;;5.90;99.90;;;4.50;93.89;100234.84;4960298;28;20025;-84
2022/02/07 10:15:39;;;;;;;15.85;2.70;;;5.90;99.90;;;4.39;93.11;100248.19;4970924;28;20061;-82
2022/02/07 10:20:54;;;;;;;21.10;3.30;;;6.00;99.90;;;4.71;93.73;100265.50;4998516;28;20032;-84
2022/02/07 10:40:32;;;;;;;21.27;2.95;;;6.00;99.90;;;4.69;92.11;100316.84;4939748;28;20082;-83
2022/02/07 10:45:59;;;;;;;13.48;2.58;;;6.00;99.90;;;4.61;90.25;100334.47;4967326;28;20036;-84
2022/02/07 10:48:35;;;;;;;21.58;3.47;;;6.10;99.90;;;4.62;90.22;100333.59;4977258;28;20717;-82
2022/02/07 10:51:26;;;;;;;17.05;3.47;;;6.00;99.90;;;4.59;89.75;100344.09;4929037;28;20075;-83
2022/02/07 10:54:14;;;;;;;24.75;3.22;;;6.00;99.90;;;4.54;88.71;100363.38;4982278;28;20029;-84
2022/02/07 10:56:48;;;;;;;18.50;2.70;;;6.00;99.90;;;4.54;88.41;100359.03;4966564;28;20042;-83
2022/02/07 10:59:21;;;;;;;20.83;2.83;;;;;;;4.54;88.92;100356.41;4947571;28;20098;-82
2022/02/07 11:04:18;;;;;;;21.75;3.95;;;6.00;99.90;;;4.54;88.54;100385.09;4972552;28;20123;-83
2022/02/07 11:06:48;;;;;;;20.48;3.45;;;6.00;99.90;;;4.63;88.63;100384.84;5033900;28;20662;-81
2022/02/07 11:14:46;;;;;;;22.80;3.97;;;6.10;99.90;;;4.65;88.71;100392.63;4926113;28;20029;-83
2022/02/07 11:20:56;;;;;;;20.83;3.20;;;6.10;99.90;;;4.67;87.57;100422.97;4941195;28;20029;-83
2022/02/07 11:23:28;;;;;;;27.90;4.32;;;6.20;99.90;;;4.70;88.21;100420.28;4962230;28;20025;-83
2022/02/07 11:27:55;;;;;;;21.48;3.47;;;6.20;99.90;;;4.85;87.15;100428.59;4953870;27;20380;-85
2022/02/07 11:31:19;;;;;;;24.10;4.38;;;6.20;99.90;;;4.75;86.15;100432.34;4899244;28;20038;-86
2022/02/07 11:36:39;;;;;;;14.88;2.75;;;6.20;99.90;;;4.81;86.80;100445.22;4891464;28;20047;-81
2022/02/07 11:39:20;;;;;;;18.42;3.13;;;6.10;99.90;;;4.65;85.53;100445.63;4931998;28;20032;-82
2022/02/07 11:42:12;;;;;;;15.15;3.05;;;6.20;99.90;;;4.72;86.15;100470.66;4943725;28;20123;-83
2022/02/07 11:44:45;;;;;;;11.57;2.45;;;6.10;99.90;;;4.66;85.08;100478.63;4911191;28;20031;-81
2022/02/07 11:47:26;;;;;;;25.27;3.95;;;6.20;99.90;;;4.71;86.03;100468.09;4992820;28;20041;-83
2022/02/07 11:50:08;;;;;;;21.52;3.17;;;6.10;99.90;;;4.65;85.54;100465.66;4913343;28;20104;-84
2022/02/07 11:52:55;;;;;;;39.42;4.15;;;6.10;99.90;;;4.57;85.25;100467.59;4911566;28;20375;-83
2022/02/07 11:55:34;;;;;;;26.63;4.10;;;6.00;99.90;;;4.46;84.83;100479.16;4919032;28;20034;-83
2022/02/07 11:58:22;;;;;;;24.40;4.00;;;6.00;99.90;;;4.45;84.58;100497.44;4899591;28;20040;-81
2022/02/07 12:00:57;;;;;;;21.80;3.67;;;6.00;99.90;;;4.53;85.04;100479.84;4921794;28;20103;-83
2022/02/07 12:03:30;;;;;;;18.27;3.20;;;6.00;99.90;;;4.59;86.36;100500.56;4950414;28;20070;-84
2022/02/07 12:05:57;;;;;;;29.52;4.68;;;6.00;99.90;;;4.51;85.48;100486.84;4932549;28;20032;-80
2022/02/07 12:08:32;;;;;;;24.45;3.67;;;6.00;99.90;;;4.53;87.11;100518.97;4926158;28;20512;-83
2022/02/07 12:11:11;;;;;;;16.33;2.90;;;6.00;99.90;;;4.54;87.77;100530.28;4907970;28;20472;-81
2022/02/07 12:13:41;;;;;;;26.88;3.80;;;6.00;99.90;;;4.50;87.70;100513.84;4927619;28;20070;-84
2022/02/07 12:16:23;;;;;;;21.92;3.75;;;6.00;99.90;;;4.55;87.44;100516.31;4985145;28;20035;-83
2022/02/07 12:19:14;;;;;;;22.73;3.70;;;6.00;99.90;;;4.62;86.59;100507.44;4934529;28;20046;-83
2022/02/07 12:21:54;;;;;;;17.95;4.05;;;6.10;99.90;;;4.62;85.61;100538.72;4931732;28;20533;-84
2022/02/07 12:24:41;;;;;;;37.47;4.30;;;6.10;99.90;;;4.69;85.36;100540.31;4946096;28;20038;-83
2022/02/07 12:27:15;;;;;;;29.23;4.35;;;6.20;99.90;;;4.77;85.71;100538.34;4920961;28;20055;-84
2022/02/07 12:30:16;;;;;;;40.22;4.18;;;6.20;99.90;;;4.82;84.60;100533.88;4860885;28;20687;-83
2022/02/07 12:32:42;;;;;;;31.17;3.95;;;6.30;99.90;;;4.92;84.85;100542.31;4943243;28;20040;-84
2022/02/07 12:35:12;;;;;;;21.45;4.40;;;6.30;99.90;;;4.80;84.34;100534.81;4906017;28;20073;-83
2022/02/07 12:37:47;;;;;;;24.00;4.28;;;6.30;99.90;;;4.82;84.50;100551.28;4901005;28;20114;-84
2022/02/07 12:40:19;;;;;;;20.83;3.78;;;6.30;99.90;;;4.83;84.60;100553.00;4933906;28;20503;-83
2022/02/07 12:42:47;;;;;;;30.27;5.13;;;;;;;4.75;83.86;100557.53;4946123;28;20084;-84
2022/02/07 12:45:13;;;;;;;35.28;5.07;;;6.30;99.90;;;4.73;84.74;100574.09;4937559;28;20400;-84
2022/02/07 12:47:50;;;;;;;29.95;3.70;;;6.20;99.90;;;4.67;84.61;100576.84;4892810;28;20051;-82
2022/02/07 12:50:26;;;;;;;26.48;3.92;;;6.10;99.90;;;4.59;84.70;100563.13;4888142;28;20535;-81
2022/02/07 12:53:04;;;;;;;20.60;3.60;;;6.10;99.90;;;4.61;83.89;100594.41;4905226;28;20512;-82
2022/02/07 12:55:37;;;;;;;28.20;3.97;;;6.10;99.90;;;4.55;84.24;100605.84;4926028;28;20102;-84
2022/02/07 12:58:14;;;;;;;18.15;3.33;;;6.00;99.90;;;4.49;84.74;100591.22;4934270;28;20032;-82
2022/02/07 13:00:43;;;;;;;21.15;3.47;;;6.00;99.90;;;4.44;84.57;100600.03;4919217;28;20518;-83
2022/02/07 13:03:14;;;;;;;30.85;4.75;;;5.90;99.90;;;4.40;84.09;100591.41;4907918;28;20386;-83
2022/02/07 13:05:43;;;;;;;17.77;2.90;;;5.90;99.90;;;4.44;84.41;100605.22;4890984;28;20026;-82
2022/02/07 13:08:21;;;;;;;24.80;3.90;;;6.00;99.90;;;4.44;84.28;100607.84;4953505;28;20052;-83
2022/02/07 13:10:59;;;;;;;25.85;4.22;;;6.00;99.90;;;4.47;84.89;100619.06;4915427;28;20033;-83
2022/02/07 13:13:47;;;;;;;25.45;4.68;;;;;;;4.57;84.81;100624.91;4867928;28;20109;-83